Main page
METAR-TAF:

METAR-TAF

Airports :

NWS Office

Majuro, Marshall Islands

latitude: 07-05N, longitude: 171-12E, elevation: 4 m

Current weather observation

The report was made 35 minutes ago, at 20:52 UTC
Wind 14 kt from the East
Temperature 29°C
Humidity 74%
Pressure 1012 hPa
Visibility: 24.1 km
Few clouds at a height of 1500 ft
Broken clouds at a height of 30000 ft

METAR: PKMR 022052Z 09014KT 15SM FEW015 BKN300 29/24 A2989 RMK SLP124 8/101 T02920243 52017

Time: 09:27 (21:27 UTC)


TAF: missing

Weather observations and forecasts of more than 4000 airports (METAR and TAF reports).

The available stations are represented by yellow and red dots on the map.

Hover mouse over dot to see the name of the station.

Then click to see weather observations and forecasts.

To change the map : click on the green buttons with a black cross to zoom in, on the green button with a dash to zoom out, or on the green arrows for adjacent maps.


METAR-TAF: